Time;durP1;ratioP1;P1;durP2;ratioP2;P2;SDS_P1;SDS_P2;PMS_P1;PMS_P2;Temp;Humidity;BMP_temperature;BMP_pressure;BME280_temperature;BME280_humidity;BME280_pressure;Samples;Min_cycle;Max_cycle;Signal;HPM_P1;HPM_P2
2021/03/31 00:00:45;;;;;;;39.90;20.33;;;10.90;99.90;;;;;;5020567;28;20184;-92
2021/03/31 00:03:14;;;;;;;42.77;20.40;;;10.80;99.90;;;;;;5036493;28;20180;-92
2021/03/31 00:05:48;;;;;;;42.33;21.20;;;10.70;99.90;;;;;;5036802;28;20176;-94
2021/03/31 00:08:14;;;;;;;43.13;20.37;;;12.30;99.90;;;;;;5057361;28;20316;-93
2021/03/31 00:10:48;;;;;;;38.00;20.30;;;11.10;99.90;;;;;;5039901;28;20245;-94
2021/03/31 00:13:15;;;;;;;37.67;19.77;;;10.70;99.90;;;;;;5057910;28;20176;-93
2021/03/31 00:15:45;;;;;;;42.80;19.03;;;10.70;99.90;;;;;;5040943;28;20199;-90
2021/03/31 00:18:13;;;;;;;41.07;20.63;;;10.70;99.90;;;;;;5040493;28;20180;-92
2021/03/31 00:20:40;;;;;;;38.97;19.50;;;10.70;99.90;;;;;;5042778;28;20180;-93
2021/03/31 00:23:14;;;;;;;41.07;19.60;;;10.60;99.90;;;;;;5036539;28;20617;-89
2021/03/31 00:25:40;;;;;;;43.20;19.90;;;10.60;99.90;;;;;;5036637;28;20184;-90
2021/03/31 00:28:07;;;;;;;35.50;18.67;;;10.70;99.90;;;;;;5020280;28;20551;-91
2021/03/31 00:30:34;;;;;;;41.43;20.03;;;11.10;99.90;;;;;;5036333;28;20171;-91
2021/03/31 00:32:59;;;;;;;39.73;19.37;;;10.70;99.90;;;;;;5036412;28;20225;-92
2021/03/31 00:35:25;;;;;;;42.60;20.00;;;10.70;99.90;;;;;;5035964;28;20574;-90
2021/03/31 00:37:51;;;;;;;39.83;20.23;;;10.70;99.90;;;;;;5054056;28;20176;-90
2021/03/31 00:40:20;;;;;;;39.07;19.87;;;10.60;99.90;;;;;;5019871;28;20636;-90
2021/03/31 00:42:47;;;;;;;37.13;19.73;;;10.60;99.90;;;;;;5036144;28;20172;-91
2021/03/31 00:45:15;;;;;;;36.23;17.63;;;10.60;99.90;;;;;;5053769;28;20229;-91
2021/03/31 00:47:43;;;;;;;35.13;18.80;;;10.60;99.90;;;;;;5036884;28;20637;-91
2021/03/31 00:50:12;;;;;;;36.53;19.90;;;10.60;99.90;;;;;;5003237;28;20184;-90
2021/03/31 00:52:41;;;;;;;33.93;18.77;;;10.60;99.90;;;;;;5035630;28;20245;-91
2021/03/31 00:55:09;;;;;;;34.57;18.53;;;9.40;99.90;;;;;;5035996;28;20176;-91
2021/03/31 00:57:36;;;;;;;37.37;18.87;;;10.60;99.90;;;;;;5035752;28;20652;-91
2021/03/31 01:00:17;;;;;;;40.40;19.37;;;10.70;99.90;;;;;;5053570;28;20251;-90
2021/03/31 01:02:43;;;;;;;37.03;19.73;;;10.50;99.90;;;;;;5006354;28;20183;-93
2021/03/31 01:05:15;;;;;;;39.93;19.00;;;10.60;99.90;;;;;;5036893;28;20186;-92
2021/03/31 01:07:41;;;;;;;37.63;19.40;;;10.60;99.90;;;;;;5053932;28;20160;-92
2021/03/31 01:10:09;;;;;;;43.08;22.77;;;10.60;99.90;;;;;;5037733;28;20415;-93
2021/03/31 01:12:50;;;;;;;40.63;19.80;;;10.70;99.90;;;;;;5053540;28;20180;-91
2021/03/31 01:15:39;;;;;;;34.07;18.40;;;10.60;99.90;;;;;;5036710;28;20601;-92
2021/03/31 01:18:22;;;;;;;35.07;18.10;;;10.60;99.90;;;;;;5035806;28;20180;-91
2021/03/31 01:21:06;;;;;;;36.53;18.67;;;10.60;99.90;;;;;;5035602;28;20180;-91
2021/03/31 01:23:50;;;;;;;37.03;18.77;;;10.70;99.90;;;;;;5053231;28;20172;-91
2021/03/31 01:26:46;;;;;;;37.00;18.50;;;10.60;99.90;;;;;;5035509;28;20266;-90
2021/03/31 01:29:41;;;;;;;37.27;19.03;;;10.60;99.90;;;;;;5053058;28;20168;-91
2021/03/31 01:32:20;;;;;;;37.63;19.83;;;10.60;99.90;;;;;;5035155;28;20179;-92
2021/03/31 01:34:56;;;;;;;38.03;18.67;;;10.70;99.90;;;;;;5053185;28;20175;-90
2021/03/31 01:37:23;;;;;;;38.57;19.13;;;10.60;99.90;;;;;;5053096;28;20675;-92
2021/03/31 01:39:53;;;;;;;35.77;18.73;;;10.60;99.90;;;;;;5036132;28;20179;-91
2021/03/31 01:42:21;;;;;;;35.83;19.43;;;10.60;99.90;;;;;;5036395;28;20200;-93
2021/03/31 01:44:56;;;;;;;37.27;20.47;;;10.60;99.90;;;;;;5054533;28;20194;-93
2021/03/31 01:47:23;;;;;;;40.50;19.90;;;10.60;99.90;;;;;;5036192;28;20227;-92
2021/03/31 01:49:50;;;;;;;37.00;18.67;;;10.60;99.90;;;;;;5039558;28;20192;-94
2021/03/31 01:52:16;;;;;;;36.23;18.53;;;10.60;99.90;;;;;;5038838;28;20183;-91
2021/03/31 01:54:44;;;;;;;36.23;19.37;;;10.60;99.90;;;;;;5039939;28;20187;-91
2021/03/31 01:57:13;;;;;;;42.67;19.73;;;10.50;99.90;;;;;;5022674;28;20262;-92
2021/03/31 01:59:41;;;;;;;37.77;19.43;;;10.50;99.90;;;;;;5039015;28;20190;-90
2021/03/31 02:02:12;;;;;;;40.37;19.03;;;10.50;99.90;;;;;;5039074;28;20176;-90
2021/03/31 02:04:40;;;;;;;40.00;20.80;;;10.60;99.90;;;;;;5038773;28;20184;-91
2021/03/31 02:07:07;;;;;;;38.60;20.20;;;10.50;99.90;;;;;;5038963;28;20230;-90
2021/03/31 02:09:38;;;;;;;41.70;19.33;;;10.40;99.90;;;;;;5038377;28;20176;-90
2021/03/31 02:12:05;;;;;;;41.00;19.07;;;10.30;99.90;;;;;;5022868;28;20271;-89
2021/03/31 02:14:36;;;;;;;38.53;20.60;;;10.50;99.90;;;;;;5038047;28;20202;-89
2021/03/31 02:17:03;;;;;;;41.17;19.73;;;10.30;99.90;;;;;;5038367;28;20261;-89
2021/03/31 02:19:30;;;;;;;39.23;19.33;;;10.30;99.90;;;;;;5037910;28;20274;-90
2021/03/31 02:21:56;;;;;;;42.93;20.13;;;10.30;99.90;;;;;;5038911;28;20237;-91
2021/03/31 02:24:22;;;;;;;44.80;19.73;;;10.20;99.90;;;;;;5056283;28;20601;-91
2021/03/31 02:26:49;;;;;;;40.37;20.17;;;10.20;99.90;;;;;;5056601;28;20259;-91
2021/03/31 02:29:15;;;;;;;43.47;19.37;;;10.10;99.90;;;;;;5023170;28;20176;-89
2021/03/31 02:31:44;;;;;;;40.40;19.93;;;10.20;99.90;;;;;;5058207;28;20176;-91
2021/03/31 02:34:15;;;;;;;43.47;20.77;;;10.00;99.90;;;;;;5056277;28;20175;-91
2021/03/31 02:36:44;;;;;;;51.13;22.87;;;10.10;99.90;;;;;;5055842;28;20204;-92
2021/03/31 02:39:13;;;;;;;47.97;22.03;;;10.10;99.90;;;;;;5038932;28;20557;-90
2021/03/31 02:41:44;;;;;;;40.60;20.10;;;10.00;99.90;;;;;;5038174;28;20180;-90
2021/03/31 02:44:14;;;;;;;42.93;21.13;;;10.00;99.90;;;;;;5038787;28;20265;-92
2021/03/31 02:46:42;;;;;;;42.47;20.97;;;9.90;99.90;;;;;;5038223;28;20318;-92
2021/03/31 02:49:10;;;;;;;43.63;20.07;;;9.90;99.90;;;;;;5038294;28;20212;-90
2021/03/31 02:51:38;;;;;;;39.87;19.57;;;9.90;99.90;;;;;;5037929;28;20175;-92
2021/03/31 02:54:07;;;;;;;47.67;20.03;;;9.80;99.90;;;;;;5038532;28;20180;-92
2021/03/31 02:56:33;;;;;;;41.90;18.70;;;7.80;99.90;;;;;;5037801;28;20250;-91
2021/03/31 02:59:02;;;;;;;43.00;21.57;;;9.80;99.90;;;;;;5022583;28;20188;-92
2021/03/31 03:01:30;;;;;;;41.50;20.80;;;9.70;99.90;;;;;;5039441;28;20584;-93
2021/03/31 03:03:59;;;;;;;41.83;20.40;;;9.70;99.90;;;;;;5039353;28;20176;-93
2021/03/31 03:06:30;;;;;;;46.40;23.03;;;9.80;99.90;;;;;;5038544;28;20175;-93
2021/03/31 03:09:15;;;;;;;37.83;20.47;;;9.80;99.90;;;;;;5038487;28;20176;-93
2021/03/31 03:11:42;;;;;;;48.87;23.10;;;9.70;99.90;;;;;;5038862;28;20211;-92
2021/03/31 03:14:12;;;;;;;47.43;22.50;;;9.70;99.90;;;;;;5037954;28;20275;-91
2021/03/31 03:16:37;;;;;;;49.30;24.07;;;9.60;99.90;;;;;;5021338;28;20624;-93
2021/03/31 03:19:03;;;;;;;50.17;24.23;;;10.00;99.90;;;;;;5021212;28;20275;-90
2021/03/31 03:21:30;;;;;;;59.33;26.47;;;9.70;99.90;;;;;;5020490;28;20640;-91
2021/03/31 03:23:57;;;;;;;43.90;21.07;;;9.70;99.90;;;;;;5055071;28;20207;-90
2021/03/31 03:26:24;;;;;;;43.73;20.10;;;9.70;99.90;;;;;;5054722;28;20648;-89
2021/03/31 03:28:50;;;;;;;41.63;19.93;;;9.70;99.90;;;;;;5004692;28;20176;-89
2021/03/31 03:31:17;;;;;;;44.63;20.93;;;9.70;99.90;;;;;;5037945;28;20172;-89
2021/03/31 03:33:43;;;;;;;42.00;20.13;;;9.70;99.90;;;;;;5020625;28;20237;-88
2021/03/31 03:36:12;;;;;;;42.10;19.57;;;9.80;99.90;;;;;;5055137;28;20729;-88
2021/03/31 03:38:38;;;;;;;40.43;19.97;;;9.80;99.90;;;;;;5037167;28;20208;-91
2021/03/31 03:41:13;;;;;;;43.10;18.93;;;9.80;99.90;;;;;;5037914;28;20192;-91
2021/03/31 03:43:41;;;;;;;40.50;18.97;;;9.90;99.90;;;;;;5037968;28;20518;-90
2021/03/31 03:46:11;;;;;;;39.30;19.30;;;9.90;99.90;;;;;;5037505;28;20244;-90
2021/03/31 03:48:37;;;;;;;38.67;20.17;;;9.90;99.90;;;;;;5055109;28;20201;-91
2021/03/31 03:51:07;;;;;;;48.00;19.03;;;9.90;99.90;;;;;;5055367;28;20168;-90
2021/03/31 03:53:34;;;;;;;39.13;19.00;;;10.00;99.90;;;;;;5020846;28;20210;-90
2021/03/31 03:56:03;;;;;;;42.60;17.70;;;10.20;99.90;;;;;;5037842;28;20541;-90
2021/03/31 03:58:29;;;;;;;42.27;18.90;;;9.90;99.90;;;;;;5055102;28;20180;-90
2021/03/31 04:00:59;;;;;;;39.33;18.13;;;9.90;99.90;;;;;;5020976;28;20187;-90
2021/03/31 04:03:24;;;;;;;37.07;19.47;;;9.90;99.90;;;;;;5055355;28;20172;-91
2021/03/31 04:05:50;;;;;;;41.63;18.60;;;9.90;99.90;;;;;;5055489;28;20175;-91
2021/03/31 04:08:16;;;;;;;36.70;19.67;;;9.90;99.90;;;;;;5055477;28;20226;-90
2021/03/31 04:10:46;;;;;;;43.73;20.03;;;9.90;99.90;;;;;;5036159;28;20180;-90
2021/03/31 04:13:12;;;;;;;36.07;17.40;;;9.90;99.90;;;;;;5037220;28;20203;-90
2021/03/31 04:15:39;;;;;;;46.43;19.60;;;9.90;99.90;;;;;;5054391;28;20199;-90
2021/03/31 04:18:07;;;;;;;39.53;19.37;;;9.90;99.90;;;;;;5054699;28;20171;-89
2021/03/31 04:20:33;;;;;;;44.57;19.37;;;9.90;99.90;;;;;;5036639;28;20171;-89
2021/03/31 04:22:58;;;;;;;43.40;20.53;;;9.90;99.90;;;;;;5036459;28;20176;-90
2021/03/31 04:25:26;;;;;;;39.90;19.20;;;9.90;99.90;;;;;;5004046;28;20279;-89
2021/03/31 04:27:54;;;;;;;39.10;19.53;;;10.00;99.90;;;;;;5019268;28;20183;-90
2021/03/31 04:30:24;;;;;;;34.90;18.10;;;9.90;99.90;;;;;;5035663;28;20172;-89
2021/03/31 04:32:52;;;;;;;39.70;20.33;;;10.00;99.90;;;;;;5053028;28;20165;-89
2021/03/31 04:35:19;;;;;;;41.43;20.13;;;10.00;99.90;;;;;;5035549;28;20625;-88
2021/03/31 04:37:45;;;;;;;39.47;21.27;;;10.00;99.90;;;;;;5035234;28;20246;-90
2021/03/31 04:40:14;;;;;;;39.67;19.67;;;9.20;99.90;;;;;;5019144;28;20643;-90
2021/03/31 04:42:39;;;;;;;43.10;20.67;;;10.00;99.90;;;;;;5035447;28;20180;-90
2021/03/31 04:45:08;;;;;;;38.73;19.53;;;9.90;99.90;;;;;;5018954;28;20180;-91
2021/03/31 04:47:34;;;;;;;42.23;19.27;;;9.90;99.90;;;;;;5034577;28;20232;-90
2021/03/31 04:50:00;;;;;;;42.53;20.23;;;9.90;99.90;;;;;;5035656;28;20202;-91
2021/03/31 04:52:28;;;;;;;41.53;19.63;;;10.00;99.90;;;;;;5035107;28;20225;-89
2021/03/31 04:54:54;;;;;;;35.67;18.17;;;10.00;99.90;;;;;;5052814;28;20215;-90
2021/03/31 04:57:20;;;;;;;48.83;23.23;;;10.00;99.90;;;;;;5035009;28;20218;-89
2021/03/31 04:59:46;;;;;;;35.90;18.97;;;10.00;99.90;;;;;;5034829;28;20544;-89
2021/03/31 05:02:11;;;;;;;38.97;19.37;;;10.00;99.90;;;;;;4996325;28;20661;-91
2021/03/31 05:04:37;;;;;;;32.03;17.27;;;10.10;99.90;;;;;;5009024;28;20649;-93
2021/03/31 05:07:04;;;;;;;35.20;18.27;;;10.10;99.90;;;;;;4985118;28;20626;-91
2021/03/31 05:09:29;;;;;;;33.83;18.40;;;10.10;99.90;;;;;;5013481;28;20196;-90
2021/03/31 05:11:55;;;;;;;37.50;18.27;;;10.10;99.90;;;;;;5009802;28;20216;-89
2021/03/31 05:14:22;;;;;;;30.03;16.60;;;10.20;99.90;;;;;;4994120;28;20212;-88
2021/03/31 05:16:47;;;;;;;35.00;17.17;;;10.20;99.90;;;;;;5013056;28;20242;-91
2021/03/31 05:19:13;;;;;;;38.87;18.67;;;10.30;99.90;;;;;;5014358;28;20218;-88
2021/03/31 05:21:39;;;;;;;36.70;18.63;;;10.30;99.90;;;;;;5013128;28;20187;-88
2021/03/31 05:24:06;;;;;;;33.63;17.30;;;10.30;99.90;;;;;;5015420;28;20195;-89
2021/03/31 05:26:32;;;;;;;37.90;18.23;;;10.40;99.90;;;;;;5035468;28;20543;-90
2021/03/31 05:29:02;;;;;;;41.77;18.33;;;10.40;99.90;;;;;;5035011;28;20195;-90
2021/03/31 05:31:27;;;;;;;32.73;17.73;;;10.40;99.90;;;;;;5019631;28;20188;-93
2021/03/31 05:33:56;;;;;;;32.83;17.90;;;10.40;99.90;;;;;;5019487;28;20271;-92
2021/03/31 05:36:21;;;;;;;31.53;17.43;;;10.40;99.90;;;;;;5017885;28;20224;-88
2021/03/31 05:38:47;;;;;;;37.90;18.50;;;10.40;99.90;;;;;;5029798;28;20223;-91
2021/03/31 05:41:13;;;;;;;35.83;18.73;;;10.50;99.90;;;;;;5002369;28;20542;-90
2021/03/31 05:43:42;;;;;;;36.70;18.90;;;10.50;99.90;;;;;;5018376;28;20192;-93
2021/03/31 05:46:08;;;;;;;36.40;18.47;;;10.70;99.90;;;;;;5020395;28;20283;-91
2021/03/31 05:48:34;;;;;;;32.73;19.27;;;10.60;99.90;;;;;;5038306;28;20271;-91
2021/03/31 05:51:00;;;;;;;40.73;19.47;;;10.60;99.90;;;;;;5051645;28;20743;-91
2021/03/31 05:53:27;;;;;;;36.80;18.20;;;10.60;99.90;;;;;;5036429;28;20180;-88
2021/03/31 05:55:53;;;;;;;38.07;19.87;;;10.70;99.90;;;;;;5053377;28;20584;-89
2021/03/31 05:58:20;;;;;;;31.77;17.23;;;10.90;99.90;;;;;;5019959;28;20716;-89
2021/03/31 06:00:47;;;;;;;35.77;19.37;;;11.00;99.90;;;;;;5035757;28;20188;-89
2021/03/31 06:03:13;;;;;;;39.33;18.73;;;11.00;99.90;;;;;;5052332;28;20188;-89
2021/03/31 06:05:39;;;;;;;35.83;18.37;;;11.10;99.90;;;;;;5033803;28;20192;-91
2021/03/31 06:08:05;;;;;;;37.07;19.50;;;11.20;99.90;;;;;;5051716;28;20192;-90
2021/03/31 06:10:31;;;;;;;27.07;15.47;;;11.30;99.90;;;;;;5034517;28;20211;-90
2021/03/31 06:13:01;;;;;;;33.23;18.67;;;11.30;99.90;;;;;;5018005;28;20180;-90
2021/03/31 06:15:37;;;;;;;38.73;18.50;;;11.40;99.90;;;;;;5034687;28;20192;-91
2021/03/31 06:18:15;;;;;;;36.07;18.20;;;11.50;99.90;;;;;;5051619;28;20701;-89
2021/03/31 06:20:59;;;;;;;27.97;16.47;;;11.50;99.90;;;;;;5050901;28;20267;-87
2021/03/31 06:23:49;;;;;;;31.00;15.93;;;11.70;99.90;;;;;;5044503;28;20190;-91
2021/03/31 06:26:32;;;;;;;33.50;17.30;;;11.80;99.90;;;;;;5035043;28;20279;-89
2021/03/31 06:29:06;;;;;;;30.17;16.67;;;11.90;99.90;;;;;;5035480;28;20184;-93
2021/03/31 06:31:33;;;;;;;26.97;16.00;;;12.10;99.90;;;;;;5036426;28;20529;-90
2021/03/31 06:34:21;;;;;;;32.00;18.27;;;12.10;99.90;;;;;;5035406;28;20494;-90
2021/03/31 06:36:51;;;;;;;34.73;17.23;;;12.20;99.90;;;;;;5037774;28;20302;-89
2021/03/31 06:39:35;;;;;;;31.27;16.13;;;12.20;99.90;;;;;;5055575;28;20229;-88
2021/03/31 06:42:13;;;;;;;31.05;16.17;;;12.20;99.90;;;;;;5055434;28;20168;-89
2021/03/31 06:50:04;;;;;;;30.85;17.85;;;12.50;99.90;;;;;;5056315;28;20203;-89
2021/03/31 06:52:30;;;;;;;28.98;16.65;;;12.60;99.90;;;;;;5037015;28;20180;-89
2021/03/31 06:55:03;;;;;;;36.25;18.33;;;12.70;99.90;;;;;;5017411;28;20191;-93
2021/03/31 06:57:31;;;;;;;26.08;16.10;;;12.70;99.90;;;;;;5055341;28;20218;-88
2021/03/31 07:00:00;;;;;;;33.17;18.40;;;12.80;99.90;;;;;;5017275;28;20181;-89
2021/03/31 07:02:30;;;;;;;29.23;17.67;;;13.00;99.90;;;;;;5037431;28;20187;-88
2021/03/31 07:04:56;;;;;;;34.40;18.27;;;13.00;99.90;;;;;;5054719;28;20176;-89
2021/03/31 07:07:32;;;;;;;26.67;16.50;;;13.10;99.90;;;;;;5036509;28;20655;-88
2021/03/31 07:10:06;;;;;;;28.15;17.15;;;13.20;99.90;;;;;;5036823;28;20186;-89
2021/03/31 07:12:52;;;;;;;27.73;14.35;;;13.30;99.90;;;;;;5036669;28;20194;-88
2021/03/31 07:15:27;;;;;;;24.90;14.95;;;13.40;99.90;;;;;;5020957;28;20207;-88
2021/03/31 07:17:55;;;;;;;27.23;16.98;;;13.40;99.90;;;;;;5054336;28;20178;-88
2021/03/31 07:20:27;;;;;;;28.33;16.83;;;13.50;99.90;;;;;;5054320;28;20241;-87
2021/03/31 07:22:54;;;;;;;31.85;16.13;;;13.60;99.90;;;;;;5018996;28;20173;-88
2021/03/31 07:25:22;;;;;;;26.83;15.75;;;13.80;99.90;;;;;;5036691;28;20286;-88
2021/03/31 07:27:49;;;;;;;24.73;15.10;;;13.90;99.90;;;;;;5036412;28;20711;-88
2021/03/31 07:30:19;;;;;;;24.33;15.68;;;13.90;99.90;;;;;;5053389;28;20187;-88
2021/03/31 07:32:59;;;;;;;27.00;15.40;;;13.90;99.90;;;;;;5053129;28;20686;-87
2021/03/31 07:35:33;;;;;;;28.40;15.80;;;14.00;99.90;;;;;;5053037;28;20183;-87
2021/03/31 07:38:04;;;;;;;24.83;14.50;;;14.10;99.90;;;;;;5052761;28;20202;-88
2021/03/31 07:40:31;;;;;;;28.77;14.90;;;14.10;99.90;;;;;;5034032;28;20199;-87
2021/03/31 07:43:06;;;;;;;26.90;14.77;;;14.10;99.90;;;;;;5051594;28;20176;-88
2021/03/31 07:45:36;;;;;;;25.00;15.27;;;14.30;99.90;;;;;;5034185;28;20186;-88
2021/03/31 07:48:03;;;;;;;26.73;15.38;;;14.40;99.90;;;;;;5034937;28;20228;-88
2021/03/31 07:50:31;;;;;;;28.63;15.65;;;14.50;99.90;;;;;;5035819;28;20191;-88
2021/03/31 07:53:02;;;;;;;27.27;15.15;;;14.60;99.90;;;;;;5035226;28;20204;-89
2021/03/31 07:55:31;;;;;;;22.73;13.82;;;14.80;99.90;;;;;;5036371;28;20188;-88
2021/03/31 07:58:12;;;;;;;22.15;13.80;;;14.90;99.90;;;;;;5034482;28;20206;-88
2021/03/31 08:00:47;;;;;;;31.42;15.80;;;14.90;99.90;;;;;;5052224;28;20176;-88
2021/03/31 08:03:21;;;;;;;23.05;17.17;;;14.80;99.90;;;;;;5034361;28;20233;-89
2021/03/31 08:06:31;;;;;;;26.70;14.93;;;14.90;99.90;;;;;;5018947;28;20175;-89
2021/03/31 08:09:06;;;;;;;28.55;16.10;;;15.00;99.90;;;;;;5028967;28;20286;-88
2021/03/31 08:11:41;;;;;;;29.63;15.00;;;15.10;99.90;;;;;;5051906;28;20179;-87
2021/03/31 08:14:15;;;;;;;27.58;16.27;;;15.30;99.90;;;;;;5052397;28;20686;-88
2021/03/31 08:16:45;;;;;;;31.63;17.88;;;15.30;99.90;;;;;;5053869;28;20262;-87
2021/03/31 08:19:19;;;;;;;29.17;17.63;;;15.30;99.90;;;;;;5053250;28;20598;-88
2021/03/31 08:21:47;;;;;;;27.02;16.15;;;15.40;99.90;;;;;;5053985;28;20160;-88
2021/03/31 08:24:13;;;;;;;28.85;17.52;;;15.40;99.90;;;;;;5035804;28;20692;-86
2021/03/31 08:26:47;;;;;;;32.67;17.42;;;15.50;99.90;;;;;;5053042;28;20267;-87
2021/03/31 08:29:19;;;;;;;32.13;16.88;;;15.70;99.90;;;;;;5017031;28;20230;-87
2021/03/31 08:32:00;;;;;;;33.55;17.20;;;15.80;99.90;;;;;;5033477;28;20199;-88
2021/03/31 08:34:27;;;;;;;25.65;17.00;;;15.90;99.90;;;;;;5033321;28;20176;-88
2021/03/31 08:36:54;;;;;;;27.27;16.67;;;16.00;99.90;;;;;;5016762;28;20216;-86
2021/03/31 08:39:20;;;;;;;30.73;18.40;;;16.10;99.90;;;;;;5016878;28;20179;-87
2021/03/31 08:41:51;;;;;;;29.42;17.25;;;16.10;99.90;;;;;;5016918;28;20641;-87
2021/03/31 08:44:30;;;;;;;30.88;17.77;;;16.10;99.90;;;;;;5033562;28;20180;-87
2021/03/31 08:47:17;;;;;;;31.98;18.45;;;16.20;99.90;;;;;;5035212;28;20250;-88
2021/03/31 08:49:48;;;;;;;34.28;18.65;;;16.10;99.90;;;;;;5036432;28;20183;-87
2021/03/31 08:52:17;;;;;;;36.00;19.55;;;16.10;99.90;;;;;;5035682;28;20263;-87
2021/03/31 08:54:45;;;;;;;30.50;18.73;;;16.30;99.90;;;;;;5053035;28;20172;-87
2021/03/31 08:57:11;;;;;;;27.05;16.15;;;16.40;99.90;;;;;;5051988;28;20562;-86
2021/03/31 08:59:39;;;;;;;32.40;18.67;;;16.40;99.90;;;;;;5053166;28;20180;-86
2021/03/31 09:02:06;;;;;;;29.83;19.30;;;16.50;99.90;;;;;;5052415;28;20176;-87
2021/03/31 09:04:33;;;;;;;29.33;17.33;;;16.60;99.90;;;;;;5034764;28;20186;-86
2021/03/31 09:07:03;;;;;;;30.52;18.88;;;17.00;99.90;;;;;;5052757;28;20698;-86
2021/03/31 09:09:35;;;;;;;34.80;20.55;;;17.10;99.90;;;;;;5052665;28;20199;-87
2021/03/31 09:12:02;;;;;;;31.42;17.23;;;17.00;99.90;;;;;;5034918;28;20278;-87
2021/03/31 09:14:28;;;;;;;33.80;18.35;;;16.90;99.90;;;;;;5052234;28;20179;-88
2021/03/31 09:16:57;;;;;;;30.23;18.67;;;16.90;99.90;;;;;;5034723;28;20211;-86
2021/03/31 09:19:25;;;;;;;34.22;19.67;;;16.80;99.90;;;;;;5036198;28;20222;-85
2021/03/31 09:21:51;;;;;;;35.03;18.15;;;16.80;99.90;;;;;;5034678;28;20176;-86
2021/03/31 09:24:20;;;;;;;27.48;18.25;;;17.00;99.90;;;;;;5017636;28;20176;-87
2021/03/31 09:26:56;;;;;;;24.40;17.10;;;17.10;99.90;;;;;;5052741;28;20184;-87
2021/03/31 09:29:22;;;;;;;38.17;18.83;;;17.20;99.90;;;;;;5034484;28;20175;-87
2021/03/31 09:31:48;;;;;;;30.25;17.30;;;17.40;99.90;;;;;;5052909;28;20180;-86
2021/03/31 09:34:15;;;;;;;35.22;18.25;;;17.50;99.90;;;;;;5002077;28;20183;-86
2021/03/31 09:36:40;;;;;;;31.27;19.20;;;17.60;99.90;;;;;;5034679;28;20195;-87
2021/03/31 09:39:10;;;;;;;28.75;17.48;;;17.70;99.90;;;;;;5018557;28;20545;-90
2021/03/31 09:41:37;;;;;;;32.22;18.52;;;17.60;99.90;;;;;;5019087;28;20188;-88
2021/03/31 09:44:04;;;;;;;30.75;17.20;;;17.50;99.90;;;;;;5035269;28;20203;-89
2021/03/31 09:46:30;;;;;;;27.48;18.73;;;17.40;99.90;;;;;;5017450;28;20239;-86
2021/03/31 09:48:58;;;;;;;31.00;17.75;;;17.40;99.90;;;;;;5034157;28;20180;-88
2021/03/31 09:51:24;;;;;;;29.15;16.73;;;17.50;99.90;;;;;;5052178;28;20176;-87
2021/03/31 09:53:51;;;;;;;31.77;17.63;;;17.50;99.90;;;;;;5034754;28;20180;-89
2021/03/31 09:56:18;;;;;;;28.40;17.38;;;17.50;99.90;;;;;;5017547;28;20227;-90
2021/03/31 09:58:47;;;;;;;29.63;17.83;;;17.40;99.90;;;;;;5034609;28;20267;-88
2021/03/31 10:01:14;;;;;;;28.20;17.65;;;17.40;99.90;;;;;;5052091;28;20172;-87
2021/03/31 10:03:41;;;;;;;27.23;15.77;;;17.30;99.90;;;;;;5031629;28;20186;-90
2021/03/31 10:06:23;;;;;;;26.67;14.77;;;17.30;99.90;;;;;;5015081;28;20235;-89
2021/03/31 10:08:50;;;;;;;25.38;13.75;;;17.40;99.90;;;;;;5042029;28;20205;-89
2021/03/31 10:11:28;;;;;;;27.17;14.70;;;17.40;99.90;;;;;;5056585;28;20651;-90
2021/03/31 10:13:54;;;;;;;22.23;12.50;;;17.50;99.90;;;;;;5056007;28;20172;-88
2021/03/31 10:16:20;;;;;;;23.00;12.90;;;17.50;99.90;;;;;;5037820;28;20222;-88
2021/03/31 10:18:46;;;;;;;19.65;10.18;;;17.40;99.90;;;;;;5055468;28;20176;-88
2021/03/31 10:21:12;;;;;;;19.63;11.55;;;17.40;99.90;;;;;;5021220;28;20226;-88
2021/03/31 10:23:44;;;;;;;24.63;12.75;;;17.50;99.90;;;;;;5037947;28;20664;-89
2021/03/31 10:26:17;;;;;;;21.30;12.32;;;17.60;99.90;;;;;;5038263;28;20187;-90
2021/03/31 10:28:43;;;;;;;26.02;12.20;;;17.70;99.90;;;;;;5037889;28;20168;-90
2021/03/31 10:31:17;;;;;;;24.95;12.00;;;18.00;99.90;;;;;;5037810;28;20184;-92
2021/03/31 10:33:44;;;;;;;21.02;11.00;;;18.40;99.90;;;;;;5037551;28;20198;-90
2021/03/31 10:36:10;;;;;;;26.10;13.13;;;18.50;99.90;;;;;;5037835;28;20208;-89
2021/03/31 10:39:28;;;;;;;31.83;12.27;;;18.60;99.90;;;;;;5038452;28;20290;-94
2021/03/31 10:49:32;;;;;;;20.10;10.10;;;18.80;99.90;;;;;;5040306;28;20175;-91
2021/03/31 10:52:06;;;;;;;16.42;9.32;;;19.00;99.90;;;;;;5055508;28;20184;-90
2021/03/31 10:54:32;;;;;;;27.02;12.48;;;18.90;99.90;;;;;;5035582;28;20178;-90
2021/03/31 10:57:11;;;;;;;16.95;10.98;;;18.80;99.90;;;;;;5020183;28;20222;-91
2021/03/31 10:59:37;;;;;;;19.08;11.52;;;18.80;99.90;;;;;;5006145;28;20237;-90
2021/03/31 11:02:03;;;;;;;19.35;11.57;;;18.80;99.90;;;;;;5035667;28;20176;-92
2021/03/31 11:04:29;;;;;;;18.30;11.70;;;18.60;99.90;;;;;;5034465;28;20705;-90
2021/03/31 11:06:55;;;;;;;20.50;10.10;;;18.50;99.90;;;;;;5035351;28;20698;-91
2021/03/31 11:09:21;;;;;;;19.45;11.32;;;18.50;99.90;;;;;;5035327;28;20183;-91
2021/03/31 11:11:47;;;;;;;19.20;11.30;;;18.70;99.90;;;;;;5036354;28;20267;-91
2021/03/31 11:14:19;;;;;;;17.70;10.35;;;18.70;99.90;;;;;;5055087;28;20250;-92
2021/03/31 11:17:00;;;;;;;17.25;10.13;;;18.80;99.90;;;;;;5054908;28;20204;-92
2021/03/31 11:27:17;;;;;;;17.10;10.43;;;19.20;99.90;;;;;;5040015;28;20213;-93
2021/03/31 11:29:43;;;;;;;14.98;9.85;;;19.30;99.90;;;;;;5038967;28;20648;-93
2021/03/31 11:32:08;;;;;;;17.48;10.48;;;19.50;99.90;;;;;;5018537;28;20275;-92
2021/03/31 11:34:34;;;;;;;16.35;10.75;;;19.60;99.90;;;;;;5036005;28;20339;-91
2021/03/31 11:37:00;;;;;;;16.52;10.00;;;19.50;99.90;;;;;;5035012;28;20635;-91
2021/03/31 11:39:25;;;;;;;17.05;8.98;;;19.40;99.90;;;;;;5038230;28;20191;-92
2021/03/31 11:41:51;;;;;;;14.68;9.00;;;19.20;99.90;;;;;;5035440;28;20199;-92
2021/03/31 11:44:17;;;;;;;22.33;10.00;;;19.20;99.90;;;;;;5035799;28;20198;-92
2021/03/31 11:46:42;;;;;;;20.52;11.05;;;19.20;99.90;;;;;;5017864;28;20602;-92
2021/03/31 11:49:08;;;;;;;13.77;9.65;;;19.20;99.90;;;;;;5052328;28;20651;-90
2021/03/31 11:51:33;;;;;;;15.10;9.27;;;19.10;99.90;;;;;;5034180;28;20187;-92
2021/03/31 11:53:59;;;;;;;17.85;9.95;;;19.00;99.90;;;;;;5034255;28;20278;-92
2021/03/31 11:56:25;;;;;;;15.45;8.07;;;19.10;99.90;;;;;;5034128;28;20208;-92
2021/03/31 11:58:53;;;;;;;12.10;8.35;;;19.30;99.90;;;;;;5034530;28;20178;-91
2021/03/31 12:01:18;;;;;;;12.43;8.57;;;19.50;95.60;;;;;;5018249;28;20191;-91
2021/03/31 12:03:44;;;;;;;12.88;8.40;;;19.40;97.10;;;;;;5036449;28;20184;-93
2021/03/31 12:06:10;;;;;;;15.15;8.30;;;19.40;97.20;;;;;;5019985;28;20697;-91
2021/03/31 12:08:35;;;;;;;18.92;8.63;;;19.50;95.30;;;;;;5035658;28;20172;-92
2021/03/31 12:11:01;;;;;;;14.68;8.70;;;19.60;95.70;;;;;;5015415;28;20550;-91
2021/03/31 12:13:27;;;;;;;15.57;9.77;;;19.90;95.30;;;;;;5034759;28;20616;-92
2021/03/31 12:15:52;;;;;;;13.13;9.23;;;19.90;95.90;;;;;;5036137;28;20687;-91
2021/03/31 12:18:50;;;;;;;14.65;8.48;;;19.80;97.00;;;;;;5040022;28;20176;-90
2021/03/31 12:24:37;;;;;;;14.57;8.27;;;19.60;95.80;;;;;;5315220;23;20617;-90
2021/03/31 12:27:05;;;;;;;22.08;7.97;;;19.80;95.80;;;;;;4996899;28;20190;-89
2021/03/31 12:29:31;;;;;;;13.63;6.20;;;20.00;93.30;;;;;;4996065;28;20241;-87
2021/03/31 12:35:19;;;;;;;11.82;6.93;;;20.30;88.20;;;;;;5232590;23;20256;-91
2021/03/31 12:37:47;;;;;;;11.88;6.20;;;20.40;88.80;;;;;;4996623;28;20213;-91
2021/03/31 12:40:13;;;;;;;12.65;6.68;;;20.60;85.10;;;;;;4981025;28;20189;-90
2021/03/31 12:42:39;;;;;;;18.05;6.95;;;20.80;83.10;;;;;;4980014;28;20193;-90
2021/03/31 12:45:07;;;;;;;19.65;8.15;;;21.00;83.30;;;;;;5013183;28;20181;-91
2021/03/31 12:47:34;;;;;;;15.82;8.13;;;21.10;84.70;;;;;;4979762;28;20549;-92
2021/03/31 12:50:03;;;;;;;17.13;9.38;;;21.20;85.40;;;;;;4996002;28;20195;-92
2021/03/31 12:52:40;;;;;;;12.35;7.45;;;21.50;84.20;;;;;;4997072;28;20296;-92
2021/03/31 12:55:09;;;;;;;15.77;8.93;;;21.60;81.10;;;;;;4983876;28;20191;-92
2021/03/31 12:57:35;;;;;;;33.45;12.98;;;22.00;80.50;;;;;;4997401;28;20221;-92
2021/03/31 13:00:04;;;;;;;14.68;7.55;;;22.20;79.00;;;;;;5014724;28;20187;-93
2021/03/31 13:02:30;;;;;;;14.20;7.88;;;22.00;74.80;;;;;;4998527;28;20180;-92
2021/03/31 13:07:32;;;;;;;14.70;8.55;;;21.30;77.70;;;;;;4503932;23;20338;-96
2021/03/31 13:09:58;;;;;;;15.05;7.85;;;21.20;79.30;;;;;;4994291;28;20646;-94
2021/03/31 13:15:20;;;;;;;12.88;8.00;;;21.00;80.50;;;;;;5011305;28;20248;-94